createdAt,value
2022-10-19T00:02:21.883Z,70.73
2022-10-19T00:04:51.032Z,71.74
2022-10-19T00:07:22.615Z,72.01
2022-10-19T00:09:53.205Z,72.21
2022-10-19T00:12:23.032Z,72.68
2022-10-19T00:14:55.800Z,73.49
2022-10-19T00:17:29.166Z,73.44
2022-10-19T00:20:04.381Z,74.13
2022-10-19T00:22:36.287Z,74.99
2022-10-19T00:25:08.097Z,76.35
2022-10-19T00:27:37.937Z,77.38
2022-10-19T00:30:09.126Z,77.74
2022-10-19T00:32:38.107Z,78.24
2022-10-19T00:35:08.117Z,79.82
2022-10-19T00:37:36.951Z,79.75
2022-10-19T00:40:08.821Z,80.55
2022-10-19T00:42:37.797Z,81.30
2022-10-19T00:45:14.011Z,82.59
2022-10-19T00:47:44.696Z,83.72
2022-10-19T00:50:17.488Z,83.95
2022-10-19T00:52:46.434Z,85.32
2022-10-19T00:55:17.513Z,85.71
2022-10-19T00:57:46.502Z,86.01
2022-10-19T01:00:15.699Z,88.43
2022-10-19T01:02:45.203Z,89.91
2022-10-19T01:05:14.672Z,90.37
2022-10-19T01:07:43.536Z,91.62
2022-10-19T01:10:13.677Z,91.83
2022-10-19T01:12:59.383Z,92.00
2022-10-19T01:15:37.030Z,92.76
2022-10-19T01:18:16.684Z,93.38
2022-10-19T01:21:23.784Z,94.77
2022-10-19T01:24:37.109Z,94.41
2022-10-19T01:27:38.299Z,95.96
2022-10-19T01:30:14.784Z,97.30
2022-10-19T01:33:00.727Z,97.42
2022-10-19T01:35:38.522Z,99.23
2022-10-19T01:38:18.394Z,100.00
2022-10-19T01:40:55.727Z,100.00
2022-10-19T01:43:34.309Z,100.00
2022-10-19T01:46:11.191Z,100.00
2022-10-19T01:48:44.367Z,100.00
2022-10-19T01:51:18.602Z,100.00
2022-10-19T01:53:52.557Z,100.00
2022-10-19T01:56:25.729Z,100.00
2022-10-19T01:58:57.663Z,100.00
2022-10-19T02:01:31.818Z,100.00
2022-10-19T02:04:01.859Z,100.00
2022-10-19T02:06:30.933Z,100.00
2022-10-19T02:09:00.188Z,100.00
2022-10-19T02:11:31.079Z,100.00
2022-10-19T02:14:05.849Z,100.00
2022-10-19T02:16:41.696Z,100.00
2022-10-19T02:19:13.055Z,100.00
2022-10-19T02:21:42.665Z,100.00
2022-10-19T02:24:11.836Z,100.00
2022-10-19T02:26:41.976Z,100.00
2022-10-19T02:29:12.687Z,100.00
2022-10-19T02:31:43.656Z,100.00
2022-10-19T02:34:13.709Z,100.00
2022-10-19T02:36:42.884Z,100.00
2022-10-19T02:39:12.049Z,100.00
2022-10-19T02:41:46.441Z,100.00
2022-10-19T02:44:25.837Z,100.00
2022-10-19T02:47:02.183Z,100.00
2022-10-19T02:49:35.205Z,100.00
2022-10-19T02:52:06.351Z,100.00
2022-10-19T02:54:35.641Z,100.00
2022-10-19T02:57:11.189Z,100.00
2022-10-19T02:59:40.361Z,100.00
2022-10-19T03:02:10.737Z,100.00
2022-10-19T03:04:41.703Z,100.00
2022-10-19T03:07:10.913Z,100.00
2022-10-19T03:09:39.953Z,100.00
2022-10-19T03:12:08.902Z,100.00
2022-10-19T03:14:37.806Z,100.00
2022-10-19T03:17:06.719Z,100.00
2022-10-19T03:19:38.092Z,100.00
2022-10-19T03:22:07.319Z,100.00
2022-10-19T03:24:36.187Z,100.00
2022-10-19T03:27:04.998Z,100.00
2022-10-19T03:29:34.326Z,100.00
2022-10-19T03:32:03.324Z,100.00
2022-10-19T03:34:32.020Z,100.00
2022-10-19T03:37:02.581Z,100.00
2022-10-19T03:39:31.562Z,100.00
2022-10-19T03:42:03.926Z,100.00
2022-10-19T03:44:33.084Z,100.00
2022-10-19T03:47:03.000Z,100.00
2022-10-19T03:49:34.570Z,100.00
2022-10-19T03:52:12.166Z,100.00
2022-10-19T03:54:42.307Z,100.00
2022-10-19T03:57:11.893Z,100.00
2022-10-19T03:59:41.191Z,100.00
2022-10-19T04:02:10.667Z,100.00
2022-10-19T04:04:39.883Z,100.00
2022-10-19T04:07:14.249Z,100.00
2022-10-19T04:09:44.320Z,100.00
2022-10-19T04:12:13.362Z,100.00
2022-10-19T04:14:57.593Z,100.00
2022-10-19T04:17:27.197Z,100.00
2022-10-19T04:19:56.079Z,100.00
2022-10-19T04:22:26.442Z,100.00
2022-10-19T04:25:03.544Z,100.00
2022-10-19T04:27:33.053Z,100.00
2022-10-19T04:30:02.291Z,100.00
2022-10-19T04:32:36.003Z,100.00
2022-10-19T04:35:11.016Z,100.00
2022-10-19T04:37:41.204Z,100.00
2022-10-19T04:40:16.601Z,100.00
2022-10-19T04:42:45.743Z,100.00
2022-10-19T04:45:14.674Z,100.00
2022-10-19T04:47:44.794Z,100.00
2022-10-19T04:50:15.981Z,100.00
2022-10-19T04:52:47.186Z,100.00
2022-10-19T04:55:22.819Z,100.00
2022-10-19T04:57:51.908Z,100.00
2022-10-19T05:00:21.286Z,100.00
2022-10-19T05:02:50.202Z,100.00
2022-10-19T05:05:21.230Z,100.00
2022-10-19T05:07:51.658Z,100.00
2022-10-19T05:10:21.084Z,100.00
2022-10-19T05:12:53.221Z,100.00
2022-10-19T05:15:23.034Z,100.00
2022-10-19T05:17:52.963Z,100.00
2022-10-19T05:20:21.824Z,100.00
2022-10-19T05:22:55.849Z,100.00
2022-10-19T05:25:27.086Z,100.00
2022-10-19T05:27:56.900Z,100.00
2022-10-19T05:30:25.912Z,100.00
2022-10-19T05:32:54.751Z,100.00
2022-10-19T05:35:23.638Z,100.00
2022-10-19T05:37:56.622Z,100.00
2022-10-19T05:40:26.643Z,100.00
2022-10-19T05:42:58.041Z,100.00
2022-10-19T05:45:28.163Z,100.00
2022-10-19T05:47:57.288Z,100.00
2022-10-19T05:50:26.818Z,100.00
2022-10-19T05:52:57.684Z,100.00
2022-10-19T05:55:26.552Z,100.00
2022-10-19T05:57:55.340Z,100.00
2022-10-19T06:00:24.183Z,100.00
2022-10-19T06:03:05.565Z,100.00
2022-10-19T06:05:37.509Z,100.00
2022-10-19T06:08:08.263Z,100.00
2022-10-19T06:10:37.121Z,100.00
2022-10-19T06:13:06.963Z,100.00
2022-10-19T06:15:36.661Z,100.00
2022-10-19T06:18:06.170Z,100.00
2022-10-19T06:20:35.936Z,100.00
2022-10-19T06:23:05.668Z,100.00
2022-10-19T06:25:36.820Z,100.00
2022-10-19T06:28:06.120Z,100.00
2022-10-19T06:30:35.441Z,100.00
2022-10-19T06:33:04.936Z,100.00
2022-10-19T06:35:34.433Z,100.00
2022-10-19T06:38:03.413Z,100.00
2022-10-19T06:40:32.426Z,100.00
2022-10-19T06:43:02.840Z,100.00
2022-10-19T06:45:35.716Z,100.00
2022-10-19T06:48:21.921Z,100.00
2022-10-19T06:50:57.879Z,100.00
2022-10-19T06:53:27.187Z,100.00
2022-10-19T06:55:59.792Z,100.00
2022-10-19T06:58:30.920Z,100.00
2022-10-19T07:01:02.403Z,100.00
2022-10-19T07:03:34.464Z,100.00
2022-10-19T07:06:05.480Z,100.00
2022-10-19T07:09:02.775Z,100.00
2022-10-19T07:11:31.825Z,100.00
2022-10-19T07:14:02.764Z,100.00
2022-10-19T07:16:32.369Z,100.00
2022-10-19T07:19:04.599Z,100.00
2022-10-19T07:21:33.535Z,100.00
2022-10-19T07:24:05.027Z,100.00
2022-10-19T07:26:33.987Z,100.00
2022-10-19T07:29:14.126Z,100.00
2022-10-19T07:31:52.753Z,100.00
2022-10-19T07:34:40.748Z,100.00
2022-10-19T07:37:12.602Z,100.00
2022-10-19T07:39:42.165Z,100.00
2022-10-19T07:42:16.353Z,100.00
2022-10-19T07:44:47.027Z,100.00
2022-10-19T07:47:18.265Z,100.00
2022-10-19T07:49:47.170Z,100.00
2022-10-19T07:52:18.861Z,100.00
2022-10-19T07:54:49.759Z,100.00
2022-10-19T07:57:18.655Z,100.00
2022-10-19T07:59:50.869Z,100.00
2022-10-19T08:02:54.867Z,100.00
2022-10-19T08:05:29.612Z,100.00
2022-10-19T08:08:04.600Z,100.00
2022-10-19T08:10:34.384Z,100.00
2022-10-19T08:13:05.915Z,100.00
2022-10-19T08:15:35.133Z,100.00
2022-10-19T08:18:23.166Z,100.00
2022-10-19T08:20:56.989Z,100.00
2022-10-19T08:23:27.556Z,100.00
2022-10-19T08:26:04.781Z,100.00
2022-10-19T08:28:38.118Z,100.00
2022-10-19T08:31:24.243Z,100.00
2022-10-19T08:33:57.488Z,100.00
2022-10-19T08:36:32.272Z,100.00
2022-10-19T08:39:01.835Z,100.00
2022-10-19T08:45:07.256Z,100.00
2022-10-19T08:48:02.742Z,100.00
2022-10-19T08:50:50.728Z,100.00
2022-10-19T08:53:59.680Z,100.00
2022-10-19T08:56:51.350Z,100.00
2022-10-19T08:59:37.926Z,100.00
2022-10-19T09:02:14.705Z,100.00
2022-10-19T09:04:49.621Z,100.00
2022-10-19T09:07:28.630Z,100.00
2022-10-19T09:10:04.467Z,100.00
2022-10-19T09:12:46.216Z,100.00
2022-10-19T09:15:19.159Z,100.00
2022-10-19T09:17:59.764Z,100.00
2022-10-19T09:20:43.801Z,100.00
2022-10-19T09:23:31.658Z,100.00
2022-10-19T09:26:08.015Z,100.00
2022-10-19T09:32:39.955Z,100.00
2022-10-19T09:35:25.223Z,100.00
2022-10-19T09:37:55.325Z,100.00
2022-10-19T09:40:28.291Z,100.00
2022-10-19T09:43:02.962Z,100.00
2022-10-19T09:45:50.786Z,100.00
2022-10-19T09:48:30.101Z,100.00
2022-10-19T09:51:01.392Z,100.00
2022-10-19T09:53:33.860Z,100.00
2022-10-19T09:56:20.649Z,100.00
2022-10-19T09:58:54.116Z,100.00
2022-10-19T10:01:41.579Z,100.00
2022-10-19T10:04:16.028Z,100.00
2022-10-19T10:06:56.213Z,100.00
2022-10-19T10:09:27.785Z,100.00
2022-10-19T10:12:00.952Z,100.00
2022-10-19T10:14:33.689Z,100.00
2022-10-19T10:17:17.021Z,100.00
2022-10-19T10:20:07.034Z,100.00
2022-10-19T10:22:43.194Z,100.00
2022-10-19T10:25:13.975Z,100.00
2022-10-19T10:27:54.500Z,100.00
2022-10-19T10:30:23.552Z,100.00
2022-10-19T10:32:56.233Z,100.00
2022-10-19T10:35:36.735Z,100.00
2022-10-19T10:38:32.790Z,100.00
2022-10-19T10:41:29.978Z,100.00
2022-10-19T10:44:21.307Z,100.00
2022-10-19T10:46:56.306Z,100.00
2022-10-19T10:49:28.797Z,100.00
2022-10-19T10:52:01.536Z,98.08
2022-10-19T10:54:34.151Z,100.00
2022-10-19T10:57:14.245Z,69.16
2022-10-19T11:03:06.343Z,73.00
2022-10-19T11:05:38.715Z,52.64
2022-10-19T11:08:19.608Z,53.45
2022-10-19T11:10:55.322Z,53.70
2022-10-19T11:13:30.329Z,52.08
2022-10-19T11:16:03.837Z,61.75
2022-10-19T11:18:37.728Z,71.02
2022-10-19T11:21:11.050Z,73.19
2022-10-19T11:23:52.957Z,72.46
2022-10-19T11:26:36.633Z,80.90
2022-10-19T11:29:25.004Z,83.96
2022-10-19T11:31:57.373Z,51.88
2022-10-19T11:34:50.771Z,49.06
2022-10-19T11:37:45.656Z,61.67
2022-10-19T11:40:28.288Z,72.27
2022-10-19T11:43:07.394Z,63.14
2022-10-19T11:45:47.546Z,47.06
2022-10-19T11:48:38.426Z,49.89
2022-10-19T11:51:21.628Z,77.66
2022-10-19T11:54:04.232Z,74.25
2022-10-19T11:57:01.870Z,78.49
2022-10-19T11:59:39.385Z,82.69
2022-10-19T12:02:28.578Z,72.21
2022-10-19T12:05:01.536Z,72.95
2022-10-19T12:07:47.663Z,83.00
2022-10-19T12:10:28.653Z,84.62
2022-10-19T12:13:12.017Z,86.79
2022-10-19T12:16:08.841Z,82.26
2022-10-19T12:18:41.813Z,67.82
2022-10-19T12:21:43.958Z,42.28
2022-10-19T12:24:17.623Z,36.60
2022-10-19T12:26:48.315Z,43.43
2022-10-19T12:29:21.924Z,55.77
2022-10-19T12:31:57.627Z,64.21
2022-10-19T12:34:35.473Z,69.08
2022-10-19T12:37:12.418Z,74.20
2022-10-19T12:39:47.946Z,71.33
2022-10-19T12:42:26.236Z,65.43
2022-10-19T12:45:26.273Z,61.75
2022-10-19T12:48:20.838Z,50.01
2022-10-19T12:51:18.098Z,50.07
2022-10-19T12:53:50.156Z,42.74
2022-10-19T12:56:21.970Z,44.39
2022-10-19T12:59:00.034Z,47.67
2022-10-19T13:01:43.939Z,63.53
2022-10-19T13:04:15.004Z,69.05
2022-10-19T13:06:46.172Z,71.79
2022-10-19T13:09:28.571Z,74.89
2022-10-19T13:12:29.702Z,75.69
2022-10-19T13:15:03.359Z,76.72
2022-10-19T13:17:48.906Z,80.42
2022-10-19T13:20:49.551Z,78.76
2022-10-19T13:23:46.761Z,80.55
2022-10-19T13:26:34.139Z,81.95
2022-10-19T13:29:25.337Z,80.25
2022-10-19T13:31:54.180Z,74.95
2022-10-19T13:34:26.356Z,71.21
2022-10-19T13:37:05.194Z,73.80
2022-10-19T13:39:40.259Z,80.54
2022-10-19T13:42:24.966Z,79.44
2022-10-19T13:44:56.882Z,75.81
2022-10-19T13:47:40.666Z,76.66
2022-10-19T13:50:41.213Z,77.39
2022-10-19T13:53:31.808Z,77.36
2022-10-19T13:56:28.088Z,75.80
2022-10-19T13:59:28.306Z,76.75
2022-10-19T14:02:37.708Z,76.83
2022-10-19T14:05:23.423Z,74.77
2022-10-19T14:08:05.594Z,73.95
2022-10-19T14:11:01.692Z,77.72
2022-10-19T14:13:30.878Z,80.28
2022-10-19T14:16:03.887Z,80.91
2022-10-19T14:18:37.779Z,84.49
2022-10-19T14:21:09.041Z,84.96
2022-10-19T14:23:40.484Z,84.89
2022-10-19T14:26:16.219Z,86.81
2022-10-19T14:28:54.296Z,84.01
2022-10-19T14:31:27.161Z,83.08
2022-10-19T14:34:02.511Z,83.67
2022-10-19T14:36:37.444Z,81.10
2022-10-19T14:39:09.290Z,81.53
2022-10-19T14:41:38.745Z,82.33
2022-10-19T14:44:44.107Z,84.05
2022-10-19T14:47:27.281Z,83.70
2022-10-19T14:49:56.593Z,85.52
2022-10-19T14:52:40.605Z,86.00
2022-10-19T14:55:18.260Z,85.89
2022-10-19T14:57:59.481Z,85.98
2022-10-19T15:00:38.556Z,85.63
2022-10-19T15:03:13.941Z,86.28
2022-10-19T15:05:49.702Z,87.44
2022-10-19T15:08:26.493Z,87.82
2022-10-19T15:10:58.259Z,87.81
2022-10-19T15:13:30.614Z,88.98
2022-10-19T15:16:00.839Z,88.90
2022-10-19T15:18:48.420Z,93.46
2022-10-19T15:21:20.944Z,96.62
2022-10-19T15:23:53.080Z,99.79
2022-10-19T15:26:28.662Z,100.00
2022-10-19T15:29:09.879Z,100.00
2022-10-19T15:31:39.741Z,100.00
2022-10-19T15:34:24.218Z,100.00
2022-10-19T15:36:58.208Z,100.00
2022-10-19T15:39:41.150Z,100.00
2022-10-19T15:42:37.832Z,100.00
2022-10-19T15:45:32.665Z,100.00
2022-10-19T15:48:28.130Z,100.00
2022-10-19T15:50:58.842Z,100.00
2022-10-19T15:53:27.992Z,100.00
2022-10-19T15:55:58.398Z,100.00
2022-10-19T15:58:27.447Z,100.00
2022-10-19T16:00:56.199Z,100.00
2022-10-19T16:03:25.224Z,100.00
2022-10-19T16:05:58.262Z,100.00
2022-10-19T16:08:29.425Z,100.00
2022-10-19T16:11:11.793Z,100.00
2022-10-19T16:13:43.597Z,100.00
2022-10-19T16:16:18.414Z,100.00
2022-10-19T16:18:56.151Z,100.00
2022-10-19T16:21:33.936Z,100.00
2022-10-19T16:24:09.634Z,100.00
2022-10-19T16:26:56.403Z,100.00
2022-10-19T16:29:33.509Z,100.00
2022-10-19T16:32:02.821Z,100.00
2022-10-19T16:34:56.336Z,100.00
2022-10-19T16:40:19.134Z,100.00
2022-10-19T16:43:30.915Z,100.00
2022-10-19T16:46:24.454Z,100.00
2022-10-19T16:48:55.773Z,100.00
2022-10-19T16:51:32.849Z,100.00
2022-10-19T16:54:22.105Z,100.00
2022-10-19T16:57:47.367Z,100.00
2022-10-19T17:00:32.566Z,100.00
2022-10-19T17:03:06.266Z,100.00
2022-10-19T17:05:46.505Z,100.00
2022-10-19T17:08:30.654Z,100.00
2022-10-19T17:11:39.584Z,100.00
2022-10-19T17:14:16.916Z,100.00
2022-10-19T17:17:17.612Z,100.00
2022-10-19T17:19:56.888Z,100.00
2022-10-19T17:23:06.438Z,100.00
2022-10-19T17:25:55.770Z,100.00
2022-10-19T17:28:37.760Z,100.00
2022-10-19T17:31:20.096Z,100.00
2022-10-19T17:33:53.947Z,100.00
2022-10-19T17:39:13.250Z,100.00
2022-10-19T17:41:52.129Z,100.00
2022-10-19T17:44:23.366Z,100.00
2022-10-19T17:46:53.127Z,100.00
2022-10-19T17:49:30.478Z,100.00
2022-10-19T17:52:13.698Z,100.00
2022-10-19T17:54:54.516Z,100.00
2022-10-19T17:57:54.631Z,100.00
2022-10-19T18:00:24.337Z,100.00
2022-10-19T18:03:06.214Z,100.00
2022-10-19T18:06:03.661Z,100.00
2022-10-19T18:08:37.178Z,100.00
2022-10-19T18:11:08.686Z,100.00
2022-10-19T18:14:17.105Z,100.00
2022-10-19T18:17:00.752Z,100.00
2022-10-19T18:19:30.043Z,100.00
2022-10-19T18:22:00.620Z,100.00
2022-10-19T18:24:30.340Z,100.00
2022-10-19T18:27:02.665Z,100.00
2022-10-19T18:29:37.582Z,100.00
2022-10-19T18:32:07.372Z,100.00
2022-10-19T18:34:38.000Z,100.00
2022-10-19T18:37:37.791Z,100.00
2022-10-19T18:40:12.554Z,100.00
2022-10-19T18:46:04.699Z,100.00
2022-10-19T18:48:42.810Z,100.00
2022-10-19T18:51:12.358Z,100.00
2022-10-19T18:53:43.288Z,100.00
2022-10-19T18:56:33.642Z,100.00
2022-10-19T18:59:04.422Z,100.00
2022-10-19T19:01:39.925Z,100.00
2022-10-19T19:04:10.151Z,100.00
2022-10-19T19:10:00.907Z,100.00
2022-10-19T19:12:42.707Z,100.00
2022-10-19T19:15:27.011Z,100.00
2022-10-19T19:17:56.676Z,100.00
2022-10-19T19:20:57.818Z,100.00
2022-10-19T19:23:40.442Z,100.00
2022-10-19T19:26:17.127Z,100.00
2022-10-19T19:28:50.737Z,100.00
2022-10-19T19:31:23.321Z,100.00
2022-10-19T19:34:33.898Z,100.00
2022-10-19T19:37:04.199Z,100.00
2022-10-19T19:43:29.536Z,100.00
2022-10-19T19:46:27.027Z,100.00
2022-10-19T19:49:13.029Z,100.00
2022-10-19T19:52:09.003Z,100.00
2022-10-19T19:54:53.125Z,100.00
2022-10-19T19:57:32.341Z,100.00
2022-10-19T20:00:18.069Z,100.00
2022-10-19T20:02:56.687Z,100.00
2022-10-19T20:05:34.988Z,100.00
2022-10-19T20:08:20.022Z,100.00
2022-10-19T20:11:21.929Z,100.00
2022-10-19T20:14:47.310Z,100.00
2022-10-19T20:17:41.671Z,100.00
2022-10-19T20:20:31.916Z,100.00
2022-10-19T20:23:45.563Z,100.00
2022-10-19T20:26:26.955Z,100.00
2022-10-19T20:32:15.788Z,100.00
2022-10-19T20:35:06.762Z,100.00
2022-10-19T20:37:43.505Z,100.00
2022-10-19T20:43:08.966Z,100.00
2022-10-19T20:45:50.270Z,100.00
2022-10-19T20:49:17.343Z,100.00
2022-10-19T20:52:17.805Z,100.00
2022-10-19T20:54:53.084Z,100.00
2022-10-19T20:57:29.618Z,100.00
2022-10-19T21:01:29.970Z,100.00
2022-10-19T21:04:06.068Z,100.00
2022-10-19T21:06:44.361Z,100.00
2022-10-19T21:09:17.172Z,100.00
2022-10-19T21:11:53.544Z,100.00
2022-10-19T21:14:28.972Z,100.00
2022-10-19T21:17:02.389Z,100.00
2022-10-19T21:19:32.441Z,100.00
2022-10-19T21:22:13.819Z,100.00
2022-10-19T21:24:46.941Z,100.00
2022-10-19T21:27:20.404Z,100.00
2022-10-19T21:29:51.905Z,100.00
2022-10-19T21:32:29.830Z,100.00
2022-10-19T21:35:02.550Z,100.00
2022-10-19T21:37:39.133Z,100.00
2022-10-19T21:40:10.737Z,100.00
2022-10-19T21:42:40.281Z,100.00
2022-10-19T21:45:29.170Z,100.00
2022-10-19T21:48:35.301Z,100.00
2022-10-19T21:51:35.815Z,100.00
2022-10-19T21:56:42.667Z,100.00
2022-10-19T21:59:15.991Z,100.00
2022-10-19T22:01:48.213Z,100.00
2022-10-19T22:04:23.567Z,100.00
2022-10-19T22:06:52.657Z,100.00
2022-10-19T22:09:23.884Z,100.00
2022-10-19T22:12:20.219Z,100.00
2022-10-19T22:14:53.690Z,100.00
2022-10-19T22:17:22.802Z,100.00
2022-10-19T22:19:52.820Z,100.00
2022-10-19T22:22:21.908Z,100.00
2022-10-19T22:24:53.197Z,100.00
2022-10-19T22:27:25.034Z,100.00
2022-10-19T22:29:56.799Z,100.00
2022-10-19T22:32:26.297Z,100.00
2022-10-19T22:35:05.063Z,100.00
2022-10-19T22:37:46.502Z,100.00
2022-10-19T22:40:15.541Z,100.00
2022-10-19T22:43:13.614Z,100.00
2022-10-19T22:45:40.759Z,100.00
2022-10-19T22:48:11.151Z,100.00
2022-10-19T22:50:43.112Z,100.00
2022-10-19T22:53:12.893Z,100.00
2022-10-19T22:55:42.279Z,100.00
2022-10-19T22:58:13.431Z,100.00
2022-10-19T23:00:45.072Z,100.00
2022-10-19T23:03:15.385Z,100.00
2022-10-19T23:05:44.653Z,100.00
2022-10-19T23:08:14.131Z,100.00
2022-10-19T23:10:44.484Z,100.00
2022-10-19T23:13:17.855Z,100.00
2022-10-19T23:15:47.787Z,100.00
2022-10-19T23:18:21.519Z,100.00
2022-10-19T23:21:00.262Z,100.00
2022-10-19T23:23:30.661Z,100.00
2022-10-19T23:26:01.816Z,100.00
2022-10-19T23:28:33.854Z,100.00
2022-10-19T23:31:07.992Z,100.00
2022-10-19T23:33:38.133Z,100.00
2022-10-19T23:36:13.159Z,100.00
2022-10-19T23:38:42.979Z,100.00
2022-10-19T23:41:12.946Z,100.00
2022-10-19T23:43:46.841Z,100.00
2022-10-19T23:46:16.122Z,100.00
2022-10-19T23:48:45.153Z,100.00
2022-10-19T23:51:19.252Z,100.00
2022-10-19T23:53:50.247Z,100.00
2022-10-19T23:56:21.398Z,100.00
2022-10-19T23:58:52.229Z,100.00
